sensor_id;sensor_type;location;lat;lon;timestamp;temperature;humidity
70475;DHT22;57944;48.722;9.316;2022-09-09T00:00:53;12.20;99.90
70475;DHT22;57944;48.722;9.316;2022-09-09T00:03:36;12.20;99.90
70475;DHT22;57944;48.722;9.316;2022-09-09T00:06:18;12.20;99.90
70475;DHT22;57944;48.722;9.316;2022-09-09T00:09:01;12.20;99.90
70475;DHT22;57944;48.722;9.316;2022-09-09T00:11:40;12.00;99.90
70475;DHT22;57944;48.722;9.316;2022-09-09T00:14:20;12.00;99.90
70475;DHT22;57944;48.722;9.316;2022-09-09T00:17:00;12.10;99.90
70475;DHT22;57944;48.722;9.316;2022-09-09T00:19:40;12.10;99.90
70475;DHT22;57944;48.722;9.316;2022-09-09T00:22:19;12.00;99.90
70475;DHT22;57944;48.722;9.316;2022-09-09T00:24:52;12.00;99.90
70475;DHT22;57944;48.722;9.316;2022-09-09T00:27:28;11.90;99.90
70475;DHT22;57944;48.722;9.316;2022-09-09T00:30:15;11.80;99.90
70475;DHT22;57944;48.722;9.316;2022-09-09T00:32:53;11.90;99.90
70475;DHT22;57944;48.722;9.316;2022-09-09T00:35:29;11.80;99.90
70475;DHT22;57944;48.722;9.316;2022-09-09T00:38:05;11.80;99.90
70475;DHT22;57944;48.722;9.316;2022-09-09T00:40:48;11.90;99.90
70475;DHT22;57944;48.722;9.316;2022-09-09T00:43:28;12.10;99.90
70475;DHT22;57944;48.722;9.316;2022-09-09T00:46:17;12.20;99.90
70475;DHT22;57944;48.722;9.316;2022-09-09T00:49:08;12.30;99.90
70475;DHT22;57944;48.722;9.316;2022-09-09T00:51:59;12.40;99.90
70475;DHT22;57944;48.722;9.316;2022-09-09T00:54:50;12.50;99.90
70475;DHT22;57944;48.722;9.316;2022-09-09T00:57:27;12.70;99.90
70475;DHT22;57944;48.722;9.316;2022-09-09T01:02:56;12.90;99.90
70475;DHT22;57944;48.722;9.316;2022-09-09T01:05:44;13.00;99.90
70475;DHT22;57944;48.722;9.316;2022-09-09T01:08:36;13.00;99.90
70475;DHT22;57944;48.722;9.316;2022-09-09T01:11:21;13.10;99.90
70475;DHT22;57944;48.722;9.316;2022-09-09T01:14:01;13.10;99.90
70475;DHT22;57944;48.722;9.316;2022-09-09T01:16:42;13.10;99.90
70475;DHT22;57944;48.722;9.316;2022-09-09T01:19:20;13.10;99.90
70475;DHT22;57944;48.722;9.316;2022-09-09T01:22:06;13.00;99.90
70475;DHT22;57944;48.722;9.316;2022-09-09T01:25:22;13.00;99.90
70475;DHT22;57944;48.722;9.316;2022-09-09T01:28:12;13.00;99.90
70475;DHT22;57944;48.722;9.316;2022-09-09T01:30:46;13.00;99.90
70475;DHT22;57944;48.722;9.316;2022-09-09T01:33:20;12.70;99.90
70475;DHT22;57944;48.722;9.316;2022-09-09T01:35:53;12.50;99.90
70475;DHT22;57944;48.722;9.316;2022-09-09T01:38:32;12.50;99.90
70475;DHT22;57944;48.722;9.316;2022-09-09T01:41:04;12.50;99.90
70475;DHT22;57944;48.722;9.316;2022-09-09T01:43:55;12.60;99.90
70475;DHT22;57944;48.722;9.316;2022-09-09T01:46:29;12.60;99.90
70475;DHT22;57944;48.722;9.316;2022-09-09T01:49:02;12.60;99.90
70475;DHT22;57944;48.722;9.316;2022-09-09T01:51:35;12.50;99.90
70475;DHT22;57944;48.722;9.316;2022-09-09T01:54:10;12.50;99.90
70475;DHT22;57944;48.722;9.316;2022-09-09T01:56:47;12.50;99.90
70475;DHT22;57944;48.722;9.316;2022-09-09T01:59:44;12.50;99.90
70475;DHT22;57944;48.722;9.316;2022-09-09T02:02:27;12.40;99.90
70475;DHT22;57944;48.722;9.316;2022-09-09T02:05:17;12.40;99.90
70475;DHT22;57944;48.722;9.316;2022-09-09T02:08:03;12.20;99.90
70475;DHT22;57944;48.722;9.316;2022-09-09T02:10:54;12.20;99.90
70475;DHT22;57944;48.722;9.316;2022-09-09T02:13:39;12.20;99.90
70475;DHT22;57944;48.722;9.316;2022-09-09T02:16:21;12.20;99.90
70475;DHT22;57944;48.722;9.316;2022-09-09T02:19:00;12.10;99.90
70475;DHT22;57944;48.722;9.316;2022-09-09T02:21:50;12.20;99.90
70475;DHT22;57944;48.722;9.316;2022-09-09T02:24:24;12.10;99.90
70475;DHT22;57944;48.722;9.316;2022-09-09T02:27:09;12.10;99.90
70475;DHT22;57944;48.722;9.316;2022-09-09T02:29:42;12.10;99.90
70475;DHT22;57944;48.722;9.316;2022-09-09T02:32:22;12.00;99.90
70475;DHT22;57944;48.722;9.316;2022-09-09T02:34:56;12.00;99.90
70475;DHT22;57944;48.722;9.316;2022-09-09T02:37:33;11.70;99.90
70475;DHT22;57944;48.722;9.316;2022-09-09T02:40:09;11.70;99.90
70475;DHT22;57944;48.722;9.316;2022-09-09T02:42:47;11.60;99.90
70475;DHT22;57944;48.722;9.316;2022-09-09T02:45:23;11.70;99.90
70475;DHT22;57944;48.722;9.316;2022-09-09T02:48:05;11.60;99.90
70475;DHT22;57944;48.722;9.316;2022-09-09T02:50:49;11.40;99.90
70475;DHT22;57944;48.722;9.316;2022-09-09T02:53:33;11.40;99.90
70475;DHT22;57944;48.722;9.316;2022-09-09T02:56:15;11.40;99.90
70475;DHT22;57944;48.722;9.316;2022-09-09T02:58:49;11.30;99.90
70475;DHT22;57944;48.722;9.316;2022-09-09T03:01:21;11.20;99.90
70475;DHT22;57944;48.722;9.316;2022-09-09T03:03:54;11.30;99.90
70475;DHT22;57944;48.722;9.316;2022-09-09T03:06:24;11.10;99.90
70475;DHT22;57944;48.722;9.316;2022-09-09T03:09:03;11.10;99.90
70475;DHT22;57944;48.722;9.316;2022-09-09T03:11:34;11.10;99.90
70475;DHT22;57944;48.722;9.316;2022-09-09T03:14:05;11.20;99.90
70475;DHT22;57944;48.722;9.316;2022-09-09T03:16:39;11.20;99.90
70475;DHT22;57944;48.722;9.316;2022-09-09T03:19:12;11.20;99.90
70475;DHT22;57944;48.722;9.316;2022-09-09T03:21:43;11.40;99.90
70475;DHT22;57944;48.722;9.316;2022-09-09T03:24:13;11.50;99.90
70475;DHT22;57944;48.722;9.316;2022-09-09T03:26:43;11.70;99.90
70475;DHT22;57944;48.722;9.316;2022-09-09T03:29:16;11.80;99.90
70475;DHT22;57944;48.722;9.316;2022-09-09T03:31:47;11.90;99.90
70475;DHT22;57944;48.722;9.316;2022-09-09T03:34:20;11.90;99.90
70475;DHT22;57944;48.722;9.316;2022-09-09T03:36:50;12.00;99.90
70475;DHT22;57944;48.722;9.316;2022-09-09T03:39:20;11.80;99.90
70475;DHT22;57944;48.722;9.316;2022-09-09T03:41:50;11.80;99.90
70475;DHT22;57944;48.722;9.316;2022-09-09T03:44:21;11.80;99.90
70475;DHT22;57944;48.722;9.316;2022-09-09T03:46:50;11.90;99.90
70475;DHT22;57944;48.722;9.316;2022-09-09T03:49:23;11.90;99.90
70475;DHT22;57944;48.722;9.316;2022-09-09T03:51:55;11.80;99.90
70475;DHT22;57944;48.722;9.316;2022-09-09T03:54:28;11.80;99.90
70475;DHT22;57944;48.722;9.316;2022-09-09T03:56:58;11.90;99.90
70475;DHT22;57944;48.722;9.316;2022-09-09T03:59:28;11.80;99.90
70475;DHT22;57944;48.722;9.316;2022-09-09T04:01:58;11.90;99.90
70475;DHT22;57944;48.722;9.316;2022-09-09T04:04:32;11.80;99.90
70475;DHT22;57944;48.722;9.316;2022-09-09T04:07:02;11.80;99.90
70475;DHT22;57944;48.722;9.316;2022-09-09T04:09:33;11.90;99.90
70475;DHT22;57944;48.722;9.316;2022-09-09T04:12:04;12.00;99.90
70475;DHT22;57944;48.722;9.316;2022-09-09T04:14:34;11.90;99.90
70475;DHT22;57944;48.722;9.316;2022-09-09T04:17:05;11.80;99.90
70475;DHT22;57944;48.722;9.316;2022-09-09T04:19:39;11.80;99.90
70475;DHT22;57944;48.722;9.316;2022-09-09T04:22:10;11.70;99.90
70475;DHT22;57944;48.722;9.316;2022-09-09T04:24:39;11.60;99.90
70475;DHT22;57944;48.722;9.316;2022-09-09T04:27:15;11.50;99.90
70475;DHT22;57944;48.722;9.316;2022-09-09T04:29:45;11.60;99.90
70475;DHT22;57944;48.722;9.316;2022-09-09T04:32:15;11.70;99.90
70475;DHT22;57944;48.722;9.316;2022-09-09T04:34:48;11.80;99.90
70475;DHT22;57944;48.722;9.316;2022-09-09T04:37:18;11.80;99.90
70475;DHT22;57944;48.722;9.316;2022-09-09T04:39:48;11.80;99.90
70475;DHT22;57944;48.722;9.316;2022-09-09T04:42:18;11.90;99.90
70475;DHT22;57944;48.722;9.316;2022-09-09T04:44:49;12.00;99.90
70475;DHT22;57944;48.722;9.316;2022-09-09T04:47:19;12.10;99.90
70475;DHT22;57944;48.722;9.316;2022-09-09T04:49:51;12.10;99.90
70475;DHT22;57944;48.722;9.316;2022-09-09T04:52:21;12.20;99.90
70475;DHT22;57944;48.722;9.316;2022-09-09T04:54:52;12.20;99.90
70475;DHT22;57944;48.722;9.316;2022-09-09T04:57:22;12.30;99.90
70475;DHT22;57944;48.722;9.316;2022-09-09T04:59:52;12.40;99.90
70475;DHT22;57944;48.722;9.316;2022-09-09T05:02:22;12.40;99.90
70475;DHT22;57944;48.722;9.316;2022-09-09T05:04:59;12.50;99.90
70475;DHT22;57944;48.722;9.316;2022-09-09T05:07:29;12.60;99.90
70475;DHT22;57944;48.722;9.316;2022-09-09T05:09:59;12.60;99.90
70475;DHT22;57944;48.722;9.316;2022-09-09T05:12:31;12.40;99.90
70475;DHT22;57944;48.722;9.316;2022-09-09T05:15:02;12.30;99.90
70475;DHT22;57944;48.722;9.316;2022-09-09T05:17:33;12.30;99.90
70475;DHT22;57944;48.722;9.316;2022-09-09T05:20:07;12.20;99.90
70475;DHT22;57944;48.722;9.316;2022-09-09T05:22:43;12.30;99.90
70475;DHT22;57944;48.722;9.316;2022-09-09T05:25:14;12.30;99.90
70475;DHT22;57944;48.722;9.316;2022-09-09T05:27:44;12.30;99.90
70475;DHT22;57944;48.722;9.316;2022-09-09T05:30:14;12.40;99.90
70475;DHT22;57944;48.722;9.316;2022-09-09T05:32:45;12.60;99.90
70475;DHT22;57944;48.722;9.316;2022-09-09T05:35:19;12.90;99.90
70475;DHT22;57944;48.722;9.316;2022-09-09T05:37:50;13.10;99.90
70475;DHT22;57944;48.722;9.316;2022-09-09T05:40:19;13.30;99.90
70475;DHT22;57944;48.722;9.316;2022-09-09T05:42:50;13.40;99.90
70475;DHT22;57944;48.722;9.316;2022-09-09T05:45:20;13.60;99.90
70475;DHT22;57944;48.722;9.316;2022-09-09T05:47:52;13.90;99.90
70475;DHT22;57944;48.722;9.316;2022-09-09T05:50:25;14.70;99.90
70475;DHT22;57944;48.722;9.316;2022-09-09T05:52:57;15.80;99.90
70475;DHT22;57944;48.722;9.316;2022-09-09T05:55:28;17.00;99.90
70475;DHT22;57944;48.722;9.316;2022-09-09T05:57:58;18.00;99.90
70475;DHT22;57944;48.722;9.316;2022-09-09T06:00:28;18.90;99.90
70475;DHT22;57944;48.722;9.316;2022-09-09T06:02:59;18.60;99.90
70475;DHT22;57944;48.722;9.316;2022-09-09T06:05:32;18.00;99.90
70475;DHT22;57944;48.722;9.316;2022-09-09T06:08:03;17.40;99.90
70475;DHT22;57944;48.722;9.316;2022-09-09T06:10:34;16.80;99.90
70475;DHT22;57944;48.722;9.316;2022-09-09T06:13:04;16.40;99.90
70475;DHT22;57944;48.722;9.316;2022-09-09T06:15:34;16.30;99.90
70475;DHT22;57944;48.722;9.316;2022-09-09T06:18:04;16.10;99.90
70475;DHT22;57944;48.722;9.316;2022-09-09T06:20:37;15.90;99.90
70475;DHT22;57944;48.722;9.316;2022-09-09T06:23:07;16.00;99.90
70475;DHT22;57944;48.722;9.316;2022-09-09T06:25:37;16.20;99.90
70475;DHT22;57944;48.722;9.316;2022-09-09T06:28:08;16.30;99.90
70475;DHT22;57944;48.722;9.316;2022-09-09T06:30:38;16.50;99.90
70475;DHT22;57944;48.722;9.316;2022-09-09T06:33:08;16.80;99.90
70475;DHT22;57944;48.722;9.316;2022-09-09T06:35:41;17.00;99.90
70475;DHT22;57944;48.722;9.316;2022-09-09T06:38:11;17.10;99.90
70475;DHT22;57944;48.722;9.316;2022-09-09T06:40:42;17.20;99.90
70475;DHT22;57944;48.722;9.316;2022-09-09T06:43:12;17.20;99.90
70475;DHT22;57944;48.722;9.316;2022-09-09T06:45:53;17.30;99.90
70475;DHT22;57944;48.722;9.316;2022-09-09T06:48:25;17.50;99.90
70475;DHT22;57944;48.722;9.316;2022-09-09T06:51:06;17.60;99.90
70475;DHT22;57944;48.722;9.316;2022-09-09T06:53:40;17.70;99.90
70475;DHT22;57944;48.722;9.316;2022-09-09T06:56:19;18.00;99.90
70475;DHT22;57944;48.722;9.316;2022-09-09T06:58:53;18.20;99.90
70475;DHT22;57944;48.722;9.316;2022-09-09T07:01:29;18.20;99.90
70475;DHT22;57944;48.722;9.316;2022-09-09T07:04:05;18.50;99.90
70475;DHT22;57944;48.722;9.316;2022-09-09T07:06:41;19.00;99.90
70475;DHT22;57944;48.722;9.316;2022-09-09T07:09:20;18.90;99.90
70475;DHT22;57944;48.722;9.316;2022-09-09T07:11:52;19.20;99.90
70475;DHT22;57944;48.722;9.316;2022-09-09T07:14:26;19.80;99.90
70475;DHT22;57944;48.722;9.316;2022-09-09T07:16:59;20.70;99.90
70475;DHT22;57944;48.722;9.316;2022-09-09T07:19:35;21.60;99.90
70475;DHT22;57944;48.722;9.316;2022-09-09T07:22:08;22.20;99.90
70475;DHT22;57944;48.722;9.316;2022-09-09T07:24:38;23.20;99.90
70475;DHT22;57944;48.722;9.316;2022-09-09T07:27:08;23.80;99.90
70475;DHT22;57944;48.722;9.316;2022-09-09T07:29:39;24.00;99.90
70475;DHT22;57944;48.722;9.316;2022-09-09T07:32:10;24.00;99.90
70475;DHT22;57944;48.722;9.316;2022-09-09T07:34:40;23.80;99.90
70475;DHT22;57944;48.722;9.316;2022-09-09T07:37:13;23.30;99.90
70475;DHT22;57944;48.722;9.316;2022-09-09T07:39:44;22.60;99.90
70475;DHT22;57944;48.722;9.316;2022-09-09T07:42:16;22.60;99.90
70475;DHT22;57944;48.722;9.316;2022-09-09T07:44:47;22.60;99.90
70475;DHT22;57944;48.722;9.316;2022-09-09T07:47:21;22.90;99.90
70475;DHT22;57944;48.722;9.316;2022-09-09T07:49:51;23.20;99.90
70475;DHT22;57944;48.722;9.316;2022-09-09T07:52:30;23.90;99.90
70475;DHT22;57944;48.722;9.316;2022-09-09T07:55:03;24.70;99.90
70475;DHT22;57944;48.722;9.316;2022-09-09T07:57:34;25.00;99.90
70475;DHT22;57944;48.722;9.316;2022-09-09T08:00:06;25.60;99.90
70475;DHT22;57944;48.722;9.316;2022-09-09T08:02:43;26.50;99.90
70475;DHT22;57944;48.722;9.316;2022-09-09T08:05:13;28.90;97.10
70475;DHT22;57944;48.722;9.316;2022-09-09T08:10:18;30.70;92.80
70475;DHT22;57944;48.722;9.316;2022-09-09T08:12:49;31.50;92.50
70475;DHT22;57944;48.722;9.316;2022-09-09T08:15:39;33.50;89.30
70475;DHT22;57944;48.722;9.316;2022-09-09T08:18:11;33.50;84.60
70475;DHT22;57944;48.722;9.316;2022-09-09T08:20:41;34.10;84.20
70475;DHT22;57944;48.722;9.316;2022-09-09T08:23:14;35.70;78.90
70475;DHT22;57944;48.722;9.316;2022-09-09T08:25:44;36.40;75.90
70475;DHT22;57944;48.722;9.316;2022-09-09T08:28:15;36.80;72.70
70475;DHT22;57944;48.722;9.316;2022-09-09T08:30:45;35.70;69.20
70475;DHT22;57944;48.722;9.316;2022-09-09T08:33:16;34.70;69.80
70475;DHT22;57944;48.722;9.316;2022-09-09T08:35:50;32.50;72.80
70475;DHT22;57944;48.722;9.316;2022-09-09T08:38:23;30.70;77.10
70475;DHT22;57944;48.722;9.316;2022-09-09T08:40:58;31.10;79.70
70475;DHT22;57944;48.722;9.316;2022-09-09T08:43:47;31.80;78.00
70475;DHT22;57944;48.722;9.316;2022-09-09T08:46:25;32.40;75.10
70475;DHT22;57944;48.722;9.316;2022-09-09T08:49:14;32.80;76.30
70475;DHT22;57944;48.722;9.316;2022-09-09T08:51:55;33.90;73.40
70475;DHT22;57944;48.722;9.316;2022-09-09T08:54:33;33.30;74.20
70475;DHT22;57944;48.722;9.316;2022-09-09T08:57:21;33.80;73.40
70475;DHT22;57944;48.722;9.316;2022-09-09T08:59:56;35.20;71.10
70475;DHT22;57944;48.722;9.316;2022-09-09T09:02:36;37.30;67.50
70475;DHT22;57944;48.722;9.316;2022-09-09T09:05:21;37.50;64.80
70475;DHT22;57944;48.722;9.316;2022-09-09T09:08:03;33.90;66.30
70475;DHT22;57944;48.722;9.316;2022-09-09T09:10:48;31.70;70.60
70475;DHT22;57944;48.722;9.316;2022-09-09T09:13:30;29.90;74.70
70475;DHT22;57944;48.722;9.316;2022-09-09T09:16:19;29.60;76.90
70475;DHT22;57944;48.722;9.316;2022-09-09T09:18:54;31.00;74.40
70475;DHT22;57944;48.722;9.316;2022-09-09T09:21:34;31.80;73.70
70475;DHT22;57944;48.722;9.316;2022-09-09T09:24:16;32.80;69.60
70475;DHT22;57944;48.722;9.316;2022-09-09T09:26:53;32.20;70.50
70475;DHT22;57944;48.722;9.316;2022-09-09T09:29:25;33.40;70.30
70475;DHT22;57944;48.722;9.316;2022-09-09T09:31:58;34.30;69.00
70475;DHT22;57944;48.722;9.316;2022-09-09T09:34:33;35.60;66.20
70475;DHT22;57944;48.722;9.316;2022-09-09T09:37:12;36.30;64.70
70475;DHT22;57944;48.722;9.316;2022-09-09T09:39:47;37.60;61.40
70475;DHT22;57944;48.722;9.316;2022-09-09T09:42:35;34.60;58.10
70475;DHT22;57944;48.722;9.316;2022-09-09T09:45:16;31.20;59.30
70475;DHT22;57944;48.722;9.316;2022-09-09T09:47:58;27.50;61.70
70475;DHT22;57944;48.722;9.316;2022-09-09T09:50:35;27.10;61.30
70475;DHT22;57944;48.722;9.316;2022-09-09T10:06:32;32.00;58.50
70475;DHT22;57944;48.722;9.316;2022-09-09T10:09:21;32.30;58.80
70475;DHT22;57944;48.722;9.316;2022-09-09T10:11:59;33.30;57.80
70475;DHT22;57944;48.722;9.316;2022-09-09T10:14:45;34.00;56.30
70475;DHT22;57944;48.722;9.316;2022-09-09T10:17:29;35.50;54.90
70475;DHT22;57944;48.722;9.316;2022-09-09T10:20:22;35.10;53.20
70475;DHT22;57944;48.722;9.316;2022-09-09T10:23:11;32.60;55.00
70475;DHT22;57944;48.722;9.316;2022-09-09T10:26:05;31.40;57.40
70475;DHT22;57944;48.722;9.316;2022-09-09T10:31:56;33.40;57.60
70475;DHT22;57944;48.722;9.316;2022-09-09T10:34:46;34.90;57.40
70475;DHT22;57944;48.722;9.316;2022-09-09T10:37:39;36.30;57.00
70475;DHT22;57944;48.722;9.316;2022-09-09T10:40:24;35.40;57.00
70475;DHT22;57944;48.722;9.316;2022-09-09T10:43:09;32.60;58.50
70475;DHT22;57944;48.722;9.316;2022-09-09T10:45:56;31.40;62.80
70475;DHT22;57944;48.722;9.316;2022-09-09T10:48:48;32.90;63.50
70475;DHT22;57944;48.722;9.316;2022-09-09T10:51:38;34.60;60.00
70475;DHT22;57944;48.722;9.316;2022-09-09T10:54:30;34.30;60.20
70475;DHT22;57944;48.722;9.316;2022-09-09T10:57:23;31.60;61.50
70475;DHT22;57944;48.722;9.316;2022-09-09T11:00:02;28.70;68.80
70475;DHT22;57944;48.722;9.316;2022-09-09T11:02:36;28.30;69.90
70475;DHT22;57944;48.722;9.316;2022-09-09T11:05:18;28.40;70.00
70475;DHT22;57944;48.722;9.316;2022-09-09T11:07:55;28.20;69.80
70475;DHT22;57944;48.722;9.316;2022-09-09T11:10:38;27.30;69.30
70475;DHT22;57944;48.722;9.316;2022-09-09T11:13:17;27.40;72.00
70475;DHT22;57944;48.722;9.316;2022-09-09T11:15:57;28.20;72.90
70475;DHT22;57944;48.722;9.316;2022-09-09T11:18:31;29.70;69.80
70475;DHT22;57944;48.722;9.316;2022-09-09T11:21:17;29.10;60.80
70475;DHT22;57944;48.722;9.316;2022-09-09T11:23:59;27.30;64.30
70475;DHT22;57944;48.722;9.316;2022-09-09T11:26:40;26.00;66.50
70475;DHT22;57944;48.722;9.316;2022-09-09T11:32:50;24.50;70.80
70475;DHT22;57944;48.722;9.316;2022-09-09T11:35:47;23.40;75.10
70475;DHT22;57944;48.722;9.316;2022-09-09T11:38:45;22.70;85.30
70475;DHT22;57944;48.722;9.316;2022-09-09T11:41:20;21.10;99.90
70475;DHT22;57944;48.722;9.316;2022-09-09T11:43:52;19.60;99.90
70475;DHT22;57944;48.722;9.316;2022-09-09T11:46:32;18.90;99.90
70475;DHT22;57944;48.722;9.316;2022-09-09T11:49:21;18.30;99.90
70475;DHT22;57944;48.722;9.316;2022-09-09T11:51:58;17.90;99.90
70475;DHT22;57944;48.722;9.316;2022-09-09T11:54:33;17.80;99.90
70475;DHT22;57944;48.722;9.316;2022-09-09T11:57:24;18.10;99.90
70475;DHT22;57944;48.722;9.316;2022-09-09T12:00:00;20.50;99.90
70475;DHT22;57944;48.722;9.316;2022-09-09T12:02:48;23.30;99.90
70475;DHT22;57944;48.722;9.316;2022-09-09T12:05:19;24.70;99.90
70475;DHT22;57944;48.722;9.316;2022-09-09T12:07:52;24.20;99.90
70475;DHT22;57944;48.722;9.316;2022-09-09T12:10:30;23.60;99.90
70475;DHT22;57944;48.722;9.316;2022-09-09T12:13:16;24.10;99.90
70475;DHT22;57944;48.722;9.316;2022-09-09T12:15:48;23.90;99.90
70475;DHT22;57944;48.722;9.316;2022-09-09T12:18:23;24.10;99.90
70475;DHT22;57944;48.722;9.316;2022-09-09T12:21:01;24.00;99.90
70475;DHT22;57944;48.722;9.316;2022-09-09T12:23:41;24.80;98.40
70475;DHT22;57944;48.722;9.316;2022-09-09T12:26:27;25.10;97.90
70475;DHT22;57944;48.722;9.316;2022-09-09T12:29:14;25.50;96.00
70475;DHT22;57944;48.722;9.316;2022-09-09T12:31:59;26.90;93.20
70475;DHT22;57944;48.722;9.316;2022-09-09T12:34:38;27.20;91.30
70475;DHT22;57944;48.722;9.316;2022-09-09T12:37:17;26.30;90.80
70475;DHT22;57944;48.722;9.316;2022-09-09T12:39:55;25.40;90.80
70475;DHT22;57944;48.722;9.316;2022-09-09T12:42:30;24.20;91.70
70475;DHT22;57944;48.722;9.316;2022-09-09T12:45:16;23.00;93.30
70475;DHT22;57944;48.722;9.316;2022-09-09T12:47:50;22.20;93.90
70475;DHT22;57944;48.722;9.316;2022-09-09T12:50:27;22.20;94.40
70475;DHT22;57944;48.722;9.316;2022-09-09T12:53:03;22.00;95.40
70475;DHT22;57944;48.722;9.316;2022-09-09T12:55:39;22.10;94.70
70475;DHT22;57944;48.722;9.316;2022-09-09T12:58:21;22.20;94.70
70475;DHT22;57944;48.722;9.316;2022-09-09T13:00:53;22.40;95.00
70475;DHT22;57944;48.722;9.316;2022-09-09T13:03:25;22.90;94.60
70475;DHT22;57944;48.722;9.316;2022-09-09T13:05:58;22.90;94.50
70475;DHT22;57944;48.722;9.316;2022-09-09T13:08:41;22.70;94.60
70475;DHT22;57944;48.722;9.316;2022-09-09T13:11:14;22.90;95.30
70475;DHT22;57944;48.722;9.316;2022-09-09T13:13:54;22.90;95.70
70475;DHT22;57944;48.722;9.316;2022-09-09T13:16:28;23.00;94.20
70475;DHT22;57944;48.722;9.316;2022-09-09T13:19:09;22.90;94.80
70475;DHT22;57944;48.722;9.316;2022-09-09T13:21:43;23.60;94.70
70475;DHT22;57944;48.722;9.316;2022-09-09T13:24:28;24.10;93.20
70475;DHT22;57944;48.722;9.316;2022-09-09T13:27:02;24.00;92.10
70475;DHT22;57944;48.722;9.316;2022-09-09T13:29:55;24.00;92.80
70475;DHT22;57944;48.722;9.316;2022-09-09T13:32:26;24.10;91.60
70475;DHT22;57944;48.722;9.316;2022-09-09T13:34:59;24.30;91.30
70475;DHT22;57944;48.722;9.316;2022-09-09T13:37:33;24.50;91.10
70475;DHT22;57944;48.722;9.316;2022-09-09T13:40:14;25.10;90.60
70475;DHT22;57944;48.722;9.316;2022-09-09T13:42:52;26.60;88.40
70475;DHT22;57944;48.722;9.316;2022-09-09T13:45:28;27.90;84.20
70475;DHT22;57944;48.722;9.316;2022-09-09T13:48:09;27.20;82.00
70475;DHT22;57944;48.722;9.316;2022-09-09T13:50:40;27.30;82.60
70475;DHT22;57944;48.722;9.316;2022-09-09T13:53:11;27.10;82.30
70475;DHT22;57944;48.722;9.316;2022-09-09T13:55:41;26.30;83.90
70475;DHT22;57944;48.722;9.316;2022-09-09T13:58:17;27.20;83.90
70475;DHT22;57944;48.722;9.316;2022-09-09T14:00:51;27.00;82.80
70475;DHT22;57944;48.722;9.316;2022-09-09T14:03:21;26.50;84.80
70475;DHT22;57944;48.722;9.316;2022-09-09T14:05:51;25.50;86.50
70475;DHT22;57944;48.722;9.316;2022-09-09T14:08:24;25.70;89.40
70475;DHT22;57944;48.722;9.316;2022-09-09T14:11:04;27.30;87.50
70475;DHT22;57944;48.722;9.316;2022-09-09T14:13:34;28.80;82.20
70475;DHT22;57944;48.722;9.316;2022-09-09T14:16:07;27.90;79.50
70475;DHT22;57944;48.722;9.316;2022-09-09T14:18:37;27.10;80.70
70475;DHT22;57944;48.722;9.316;2022-09-09T14:21:07;27.10;79.20
70475;DHT22;57944;48.722;9.316;2022-09-09T14:23:38;27.20;78.90
70475;DHT22;57944;48.722;9.316;2022-09-09T14:26:08;25.80;80.30
70475;DHT22;57944;48.722;9.316;2022-09-09T14:28:38;24.70;82.30
70475;DHT22;57944;48.722;9.316;2022-09-09T14:31:24;24.10;85.40
70475;DHT22;57944;48.722;9.316;2022-09-09T14:33:54;23.60;85.00
70475;DHT22;57944;48.722;9.316;2022-09-09T14:36:24;23.40;85.90
70475;DHT22;57944;48.722;9.316;2022-09-09T14:38:54;23.40;86.90
70475;DHT22;57944;48.722;9.316;2022-09-09T14:41:25;23.10;86.30
70475;DHT22;57944;48.722;9.316;2022-09-09T14:43:56;23.00;86.80
70475;DHT22;57944;48.722;9.316;2022-09-09T14:46:29;23.00;86.90
70475;DHT22;57944;48.722;9.316;2022-09-09T14:49:00;23.20;87.30
70475;DHT22;57944;48.722;9.316;2022-09-09T14:51:30;23.30;87.80
70475;DHT22;57944;48.722;9.316;2022-09-09T14:54:00;23.40;85.50
70475;DHT22;57944;48.722;9.316;2022-09-09T14:56:32;23.40;81.00
70475;DHT22;57944;48.722;9.316;2022-09-09T14:59:04;24.00;80.50
70475;DHT22;57944;48.722;9.316;2022-09-09T15:01:37;24.70;78.40
70475;DHT22;57944;48.722;9.316;2022-09-09T15:04:07;25.50;76.90
70475;DHT22;57944;48.722;9.316;2022-09-09T15:06:37;25.10;75.80
70475;DHT22;57944;48.722;9.316;2022-09-09T15:09:09;25.10;77.40
70475;DHT22;57944;48.722;9.316;2022-09-09T15:11:39;24.90;77.30
70475;DHT22;57944;48.722;9.316;2022-09-09T15:14:11;24.60;77.00
70475;DHT22;57944;48.722;9.316;2022-09-09T15:16:44;24.50;78.30
70475;DHT22;57944;48.722;9.316;2022-09-09T15:19:14;24.70;78.40
70475;DHT22;57944;48.722;9.316;2022-09-09T15:21:43;24.80;78.40
70475;DHT22;57944;48.722;9.316;2022-09-09T15:24:14;24.50;78.40
70475;DHT22;57944;48.722;9.316;2022-09-09T15:26:44;24.30;78.20
70475;DHT22;57944;48.722;9.316;2022-09-09T15:29:15;23.50;79.60
70475;DHT22;57944;48.722;9.316;2022-09-09T15:31:48;23.20;81.80
70475;DHT22;57944;48.722;9.316;2022-09-09T15:34:18;23.30;82.60
70475;DHT22;57944;48.722;9.316;2022-09-09T15:36:48;23.10;83.50
70475;DHT22;57944;48.722;9.316;2022-09-09T15:39:18;23.80;83.30
70475;DHT22;57944;48.722;9.316;2022-09-09T15:41:49;24.10;82.60
70475;DHT22;57944;48.722;9.316;2022-09-09T15:44:19;24.20;82.40
70475;DHT22;57944;48.722;9.316;2022-09-09T15:46:54;23.80;82.00
70475;DHT22;57944;48.722;9.316;2022-09-09T15:49:25;23.20;83.80
70475;DHT22;57944;48.722;9.316;2022-09-09T15:51:57;22.80;84.70
70475;DHT22;57944;48.722;9.316;2022-09-09T15:54:32;22.40;87.00
70475;DHT22;57944;48.722;9.316;2022-09-09T15:57:07;22.00;86.80
70475;DHT22;57944;48.722;9.316;2022-09-09T15:59:39;21.80;87.00
70475;DHT22;57944;48.722;9.316;2022-09-09T16:02:12;21.60;87.60
70475;DHT22;57944;48.722;9.316;2022-09-09T16:04:42;21.40;88.00
70475;DHT22;57944;48.722;9.316;2022-09-09T16:07:12;21.30;86.10
70475;DHT22;57944;48.722;9.316;2022-09-09T16:09:43;21.20;85.90
70475;DHT22;57944;48.722;9.316;2022-09-09T16:12:12;21.10;86.00
70475;DHT22;57944;48.722;9.316;2022-09-09T16:14:43;21.00;86.60
70475;DHT22;57944;48.722;9.316;2022-09-09T16:17:15;20.90;87.40
70475;DHT22;57944;48.722;9.316;2022-09-09T16:19:47;20.90;88.00
70475;DHT22;57944;48.722;9.316;2022-09-09T16:22:17;20.90;88.80
70475;DHT22;57944;48.722;9.316;2022-09-09T16:24:47;20.90;89.30
70475;DHT22;57944;48.722;9.316;2022-09-09T16:27:17;20.90;88.10
70475;DHT22;57944;48.722;9.316;2022-09-09T16:29:47;20.90;88.20
70475;DHT22;57944;48.722;9.316;2022-09-09T16:32:19;20.90;88.50
70475;DHT22;57944;48.722;9.316;2022-09-09T16:34:49;20.90;88.80
70475;DHT22;57944;48.722;9.316;2022-09-09T16:37:19;20.90;89.40
70475;DHT22;57944;48.722;9.316;2022-09-09T16:39:49;20.80;89.70
70475;DHT22;57944;48.722;9.316;2022-09-09T16:42:20;20.80;90.00
70475;DHT22;57944;48.722;9.316;2022-09-09T16:44:50;20.80;90.30
70475;DHT22;57944;48.722;9.316;2022-09-09T16:47:23;20.70;90.40
70475;DHT22;57944;48.722;9.316;2022-09-09T16:49:53;20.70;90.80